2022年8月14日

时间 代码 天气 温度 能见度 天花板 METAR/SPECI
01:55
V
22 °C 10 km+ 8.200 ft 110° 110° 9 kt METAR EHLW 132355Z AUTO 11009KT 040V170 9999 FEW073 BKN082 22/14 Q1013 BLU
01:25
V
22 °C 10 km+ - Var Var 8 kt METAR EHLW 132325Z AUTO VRB08KT 9999 SCT074 SCT081 22/14 Q1014 BLU
00:55
V
21 °C 10 km+ - Var Var 7 kt METAR EHLW 132255Z AUTO VRB07KT 9999 FEW075 21/14 Q1014 BLU
00:25
V
21 °C 10 km+ - 080° 080° 8 kt METAR EHLW 132225Z AUTO 08008KT 360V150 9999 FEW074 21/14 Q1014 BLU

2022年8月13日

时间 代码 天气 温度 能见度 天花板 METAR/SPECI
23:55
V
21 °C 10 km+ - 070° 070° 7 kt METAR EHLW 132155Z AUTO 07007KT 350V130 9999 FEW076 21/14 Q1014 BLU
23:25
V
21 °C 10 km+ 8.500 ft 060° 060° 7 kt METAR EHLW 132125Z AUTO 06007KT 360V110 9999 FEW075 BKN085 21/14 Q1014 BLU
22:55
V
21 °C 10 km+ 8.300 ft 060° 060° 7 kt METAR EHLW 132055Z AUTO 06007KT 340V110 9999 SCT077 BKN083 21/15 Q1015 BLU
22:25
V
21 °C 10 km+ - Var Var 8 kt METAR EHLW 132025Z AUTO VRB08KT 9999 SCT080 SCT085 21/16 Q1015 BLU
21:55
V
22 °C 10 km+ - 060° 060° 8 kt METAR EHLW 131955Z AUTO 06008KT 340V120 9999 SCT081 22/16 Q1014 BLU
21:25
V
22 °C 10 km+ 8.200 ft 060° 060° 9 kt METAR EHLW 131925Z AUTO 06009KT 360V120 9999 BKN082 22/16 Q1014 BLU
20:55
V
23 °C 10 km+ - 060° 060° 8 kt METAR EHLW 131855Z AUTO 06008KT 340V110 9999 SCT084 23/16 Q1014 BLU
20:25
V
24 °C 10 km+ - Var Var 9 kt METAR EHLW 131825Z AUTO VRB09KT 9999 FEW085 24/17 Q1014 BLU
19:55
V
25 °C 10 km+ - 060° 060° 8 kt METAR EHLW 131755Z AUTO 06008KT 360V110 9999 NCD 25/16 Q1014 BLU
19:25
V
26 °C 10 km+ - 060° 060° 11 kt METAR EHLW 131725Z AUTO 06011KT 360V110 9999 NCD 26/15 Q1014 BLU
18:55
V
27 °C 10 km+ - 060° 060° 13 kt METAR EHLW 131655Z AUTO 06013KT 360V110 9999 NCD 27/15 Q1014 BLU
18:25
V
29 °C 10 km+ - 090° 090° 8 kt METAR EHLW 131625Z AUTO 09008KT 330V120 9999 NCD 29/11 Q1015 BLU
17:55
V
30 °C 10 km+ - 140° 140° 6 kt METAR EHLW 131555Z AUTO 14006KT 060V170 9999 NCD 30/10 Q1015 BLU
17:25
V
30 °C 10 km+ - 120° 120° 4 kt METAR EHLW 131525Z AUTO 12004KT 030V180 9999 FEW085 30/11 Q1015 BLU
16:55
V
30 °C 10 km+ - 160° 160° 7 kt METAR EHLW 131455Z AUTO 16007KT 080V190 9999 NCD 30/10 Q1015 BLU
16:25
V
30 °C 10 km+ - 160° 160° 7 kt METAR EHLW 131425Z AUTO 16007KT 060V180 9999 NCD 30/10 Q1016 BLU
15:55
V
30 °C 10 km+ - 130° 130° 6 kt METAR EHLW 131355Z AUTO 13006KT 090V200 9999 FEW082 30/10 Q1016 BLU
15:25
V
30 °C 10 km+ - Var Var 8 kt METAR EHLW 131325Z AUTO VRB08KT 9999 NCD 30/10 Q1016 BLU
14:55
V
30 °C 10 km+ - 150° 150° 10 kt METAR EHLW 131255Z AUTO 15010KT 100V200 9999 NCD 30/09 Q1017 BLU
14:25
V
29 °C 10 km+ - 120° 120° 9 kt METAR EHLW 131225Z AUTO 12009KT 070V160 9999 NCD 29/10 Q1017 BLU
13:55
V
29 °C 10 km+ - Var Var 10 kt METAR EHLW 131155Z AUTO VRB10KT 9999 NCD 29/11 Q1017 BLU
13:25
V
29 °C 10 km+ - 130° 130° 7 kt METAR EHLW 131125Z AUTO 13007KT 080V180 9999 NCD 29/11 Q1017 BLU
12:55
V
29 °C 10 km+ - 120° 120° 9 kt METAR EHLW 131055Z AUTO 12009KT 020V180 9999 NCD 29/12 Q1017 BLU
12:25
V
28 °C 10 km+ - Var Var 7 kt METAR EHLW 131025Z AUTO VRB07KT 9999 NCD 28/12 Q1018 BLU
11:55
V
28 °C 10 km+ - 130° 130° 7 kt METAR EHLW 130955Z AUTO 13007KT 050V190 9999 NCD 28/13 Q1018 BLU
11:25
V
27 °C 10 km+ - Var Var 7 kt METAR EHLW 130925Z AUTO VRB07KT 9999 NCD 27/12 Q1018 BLU
10:55
V
27 °C 10 km+ - 120° 120° 6 kt METAR EHLW 130855Z AUTO 12006KT 080V170 9999 NCD 27/11 Q1018 BLU
10:25
V
26 °C 10 km+ - 130° 130° 7 kt METAR EHLW 130825Z AUTO 13007KT 090V150 9999 NCD 26/12 Q1018 BLU
09:55
V
25 °C 10 km+ - 120° 120° 5 kt METAR EHLW 130755Z AUTO 12005KT 080V150 9999 NCD 25/12 Q1018 BLU
09:25
V
24 °C 10 km+ - 130° 130° 5 kt METAR EHLW 130725Z AUTO 13005KT 020V170 9999 NCD 24/12 Q1018 BLU
08:55
V
23 °C 10 km+ - 130° 130° 3 kt METAR EHLW 130655Z AUTO 13003KT 020V190 9999 NCD 23/12 Q1018 BLU
08:25
V
22 °C 10 km+ - 130° 130° 5 kt METAR EHLW 130625Z AUTO 13005KT 030V190 9999 NCD 22/11 Q1018 BLU
07:55
V
21 °C 10 km+ - 130° 130° 5 kt METAR EHLW 130555Z AUTO 13005KT 050V150 9999 NCD 21/11 Q1018 BLU
07:25
V
20 °C 10 km+ - 130° 130° 6 kt METAR EHLW 130525Z AUTO 13006KT 060V160 9999 NCD 20/11 Q1018 BLU
06:55
V
19 °C 10 km+ - 120° 120° 6 kt METAR EHLW 130455Z AUTO 12006KT 050V150 9999 NCD 19/11 Q1018 BLU
06:25
V
19 °C 10 km+ - 120° 120° 6 kt METAR EHLW 130425Z AUTO 12006KT 040V150 9999 NCD 19/11 Q1018 BLU
05:55
V
19 °C 10 km+ - 120° 120° 6 kt METAR EHLW 130355Z AUTO 12006KT 060V140 9999 NCD 19/11 Q1018 BLU
05:25
V
19 °C 10 km+ - 120° 120° 5 kt METAR EHLW 130325Z AUTO 12005KT 020V150 9999 NCD 19/11 Q1018 BLU
04:55
V
20 °C 10 km+ - 120° 120° 5 kt METAR EHLW 130255Z AUTO 12005KT 030V140 9999 NCD 20/12 Q1018 BLU
04:25
V
19 °C 10 km+ - 110° 110° 5 kt METAR EHLW 130225Z AUTO 11005KT 010V130 9999 NCD 19/13 Q1018 BLU
03:55
V
19 °C 10 km+ - 110° 110° 6 kt METAR EHLW 130155Z AUTO 11006KT 030V150 9999 NCD 19/13 Q1018 BLU
03:25
V
19 °C 10 km+ - 100° 100° 5 kt METAR EHLW 130125Z AUTO 10005KT 030V190 9999 NCD 19/14 Q1018 BLU
02:55
V
18 °C 10 km+ - Var Var 5 kt METAR EHLW 130055Z AUTO VRB05KT 9999 NCD 18/14 Q1018 BLU
02:25
V
19 °C 10 km+ - Var Var 6 kt METAR EHLW 130025Z AUTO VRB06KT 9999 NCD 19/15 Q1018 BLU RMK CB INFO NOT AVBL
01:55
V
19 °C 10 km+ - Var Var 7 kt METAR EHLW 122355Z AUTO VRB07KT 9999 NCD 19/15 Q1018 BLU
01:25
V
19 °C 10 km+ - Var Var 7 kt METAR EHLW 122325Z AUTO VRB07KT 9999 NCD 19/16 Q1018 BLU
00:55
V
19 °C 10 km+ - 080° 080° 7 kt METAR EHLW 122255Z AUTO 08007KT 360V140 9999 NCD 19/16 Q1018 BLU
00:25
V
19 °C 10 km+ - 070° 070° 7 kt METAR EHLW 122225Z AUTO 07007KT 340V120 9999 NCD 19/16 Q1018 BLU

2022年8月12日

时间 代码 天气 温度 能见度 天花板 METAR/SPECI
23:55
V
19 °C 10 km+ - 070° 070° 7 kt METAR EHLW 122155Z AUTO 07007KT 340V140 9999 NCD 19/16 Q1018 BLU
23:25
V
19 °C 10 km+ - 070° 070° 7 kt METAR EHLW 122125Z AUTO 07007KT 350V130 9999 NCD 19/16 Q1018 BLU
22:55
V
19 °C 10 km+ - 060° 060° 7 kt METAR EHLW 122055Z AUTO 06007KT 360V130 9999 NCD 19/17 Q1018 BLU
22:25
V
19 °C 10 km+ - 060° 060° 7 kt METAR EHLW 122025Z AUTO 06007KT 360V130 9999 NCD 19/17 Q1018 BLU
21:55
V
19 °C 10 km+ - 050° 050° 8 kt METAR EHLW 121955Z AUTO 05008KT 020V080 9999 NCD 19/16 Q1018 BLU
21:25
V
21 °C 10 km+ - 050° 050° 8 kt METAR EHLW 121925Z AUTO 05008KT 010V090 9999 NCD 21/17 Q1018 BLU
20:55
V
22 °C 10 km+ - 050° 050° 8 kt METAR EHLW 121855Z AUTO 05008KT 010V070 9999 NCD 22/17 Q1018 BLU
20:25
V
23 °C 10 km+ - 050° 050° 9 kt METAR EHLW 121825Z AUTO 05009KT 360V080 9999 NCD 23/17 Q1018 BLU
19:55
V
24 °C 10 km+ - 050° 050° 10 kt METAR EHLW 121755Z AUTO 05010KT 010V100 9999 NCD 24/16 Q1018 BLU
19:25
V
25 °C 10 km+ - 050° 050° 11 kt METAR EHLW 121725Z AUTO 05011KT 360V080 9999 NCD 25/14 Q1018 BLU
18:55
V
26 °C 10 km+ - 050° 050° 12 kt METAR EHLW 121655Z AUTO 05012KT 350V100 9999 NCD 26/14 Q1018 BLU
18:25
V
27 °C 10 km+ - 050° 050° 13 kt METAR EHLW 121625Z AUTO 05013KT 350V100 9999 NCD 27/14 Q1018 BLU
17:55
V
27 °C 10 km+ - 050° 050° 14 kt METAR EHLW 121555Z AUTO 05014KT 010V100 9999 NCD 27/16 Q1018 BLU
17:25
V
28 °C 10 km+ - 050° 050° 14 kt METAR EHLW 121525Z AUTO 05014KT 360V120 9999 NCD 28/15 Q1018 BLU
16:55
V
28 °C 10 km+ - 050° 050° 13 kt METAR EHLW 121455Z AUTO 05013KT 360V100 9999 NCD 28/14 Q1018 BLU
16:25
V
28 °C 10 km+ - 050° 050° 12 kt METAR EHLW 121425Z AUTO 05012KT 350V110 9999 NCD 28/14 Q1019 BLU
15:55
V
28 °C 10 km+ - 050° 050° 13 kt METAR EHLW 121355Z AUTO 05013KT 350V110 9999 NCD 28/15 Q1019 BLU
15:25
V
29 °C 10 km+ - 050° 050° 11 kt METAR EHLW 121325Z AUTO 05011KT 360V120 9999 NCD 29/14 Q1019 BLU
14:55
V
29 °C 10 km+ - Var Var 11 kt METAR EHLW 121255Z AUTO VRB11KT 9999 NCD 29/15 Q1019 BLU
14:25
V
29 °C 10 km+ - 050° 050° 11 kt METAR EHLW 121225Z AUTO 05011KT 360V120 9999 NCD 29/16 Q1019 BLU
13:55
V
29 °C 10 km+ - 060° 060° 11 kt METAR EHLW 121155Z AUTO 06011KT 360V110 9999 NCD 29/16 Q1019 BLU
13:25
V
29 °C 10 km+ - Var Var 8 kt METAR EHLW 121125Z AUTO VRB08KT 9999 NCD 29/14 Q1020 BLU
12:55
V
28 °C 10 km+ - 070° 070° 9 kt METAR EHLW 121055Z AUTO 07009KT 350V160 9999 NCD 28/13 Q1020 BLU
12:25
V
28 °C 10 km+ - Var Var 7 kt METAR EHLW 121025Z AUTO VRB07KT 9999 NCD 28/15 Q1020 BLU
11:55
V
27 °C 10 km+ - Var Var 9 kt METAR EHLW 120955Z AUTO VRB09KT 9999 NCD 27/15 Q1020 BLU
11:25
V
26 °C 10 km+ - 060° 060° 8 kt METAR EHLW 120925Z AUTO 06008KT 350V140 9999 NCD 26/16 Q1020 BLU
10:55
V
25 °C 10 km+ - 060° 060° 6 kt METAR EHLW 120855Z AUTO 06006KT 330V130 9999 NCD 25/16 Q1021 BLU
10:25
V
24 °C 10 km+ - 060° 060° 5 kt METAR EHLW 120825Z AUTO 06005KT 330V130 9999 NCD 24/17 Q1021 BLU
09:55
V
23 °C 10 km+ - 070° 070° 5 kt METAR EHLW 120755Z AUTO 07005KT 9999 NCD 23/16 Q1021 BLU
09:25
V
21 °C 10 km+ - 060° 060° 5 kt METAR EHLW 120725Z AUTO 06005KT 010V160 9999 FEW020CB 21/16 Q1020 BLU
08:55
V
20 °C 10 km+ - 070° 070° 7 kt METAR EHLW 120655Z AUTO 07007KT 360V120 9999 FEW017CB 20/16 Q1021 BLU
08:25
V
20 °C 10 km+ - 060° 060° 5 kt METAR EHLW 120625Z AUTO 06005KT 350V120 9999 FEW015CB 20/17 Q1021 BLU
07:55
V
19 °C 10 km+ - 060° 060° 3 kt METAR EHLW 120555Z AUTO 06003KT 340V150 9999 FEW015CB 19/17 Q1020 BLU
07:42
V
18 °C 10 km+ - 060° 060° 4 kt METAR EHLW 120542Z AUTO 06004KT 340V120 9999 FEW015CB 18/17 Q1020 BLU
07:26
V
18 °C 8 km - 060° 060° 3 kt METAR EHLW 120526Z AUTO 06003KT 360V120 8000 BR FEW015CB 18/17 Q1020 BLU
07:25
M
18 °C 6 km - 060° 060° 4 kt METAR EHLW 120525Z AUTO 06004KT 330V120 6000 BR FEW015CB 18/17 Q1020 WHT
07:12
M
17 °C 5 km - 060° 060° 4 kt METAR EHLW 120512Z AUTO 06004KT 360V130 5000 BR FEW015CB 17/17 Q1020 WHT
07:01
I
17 °C 3,8 km - 060° 060° 6 kt METAR EHLW 120501Z AUTO 06006KT 330V130 3800 BR FEW015CB 17/17 Q1020 GRN
06:55
I
17 °C 2,5 km - Var Var 6 kt METAR EHLW 120455Z AUTO VRB06KT 2500 BR FEW015CB 17/16 Q1020 YLO
06:39
I
17 °C 1,8 km - 060° 060° 7 kt METAR EHLW 120439Z AUTO 06007KT 360V160 1800 BR FEW015CB 17/16 Q1020 YLO
06:37
L
17 °C 1,4 km - 060° 060° 6 kt METAR EHLW 120437Z AUTO 06006KT 010V160 1400 BR FEW015CB 17/16 Q1020 AMB
06:25
I
17 °C 3,1 km - 060° 060° 6 kt METAR EHLW 120425Z AUTO 06006KT 340V120 3100 BR FEW015CB 17/16 Q1021 YLO
06:13
I
17 °C 4,2 km - 060° 060° 6 kt METAR EHLW 120413Z AUTO 06006KT 350V130 4200 BR FEW015CB 17/16 Q1021 GRN
06:05
I
17 °C 4,2 km - 060° 060° 6 kt METAR EHLW 120405Z AUTO 06006KT 350V130 4200 BR FEW015CB 17/16 Q1021 GRN
05:55
I
17 °C 4,1 km - 060° 060° 6 kt METAR EHLW 120355Z AUTO 06006KT 320V130 4100 BR FEW015CB 17/16 Q1021 GRN
05:29
I
17 °C 4,6 km - 060° 060° 7 kt METAR EHLW 120329Z AUTO 06007KT 350V130 4600 BR FEW015CB 17/16 Q1021 GRN
05:25
M
17 °C 5 km - 050° 050° 7 kt METAR EHLW 120325Z AUTO 05007KT 010V110 5000 BR FEW015CB 17/16 Q1021 WHT
04:59
M
17 °C 7 km - 050° 050° 7 kt METAR EHLW 120259Z AUTO 05007KT 360V110 7000 BR FEW015CB 17/16 Q1021 WHT
04:55
V
17 °C 8 km - 050° 050° 7 kt METAR EHLW 120255Z AUTO 05007KT 360V110 8000 BR NCD 17/16 Q1021 BLU
04:25
V
17 °C 10 km+ - 050° 050° 7 kt METAR EHLW 120225Z AUTO 05007KT 350V090 9999 NCD 17/16 Q1021 BLU
03:55
V
15 °C 10 km+ - 040° 040° 7 kt METAR EHLW 120155Z AUTO 04007KT 360V060 9999 NCD 15/15 Q1021 BLU
03:25
V
16 °C 10 km+ - 030° 030° 6 kt METAR EHLW 120125Z AUTO 03006KT 360V060 9999 NCD 16/15 Q1021 BLU
02:55
V
17 °C 10 km+ - 040° 040° 5 kt METAR EHLW 120055Z AUTO 04005KT 360V080 9999 NCD 17/16 Q1021 BLU
02:39
V
17 °C 10 km+ - 040° 040° 5 kt METAR EHLW 120039Z AUTO 04005KT 350V080 9999 NCD 17/16 Q1021 BLU
02:25
V
17 °C 9 km - 040° 040° 5 kt METAR EHLW 120025Z AUTO 04005KT 9000 BR NCD 17/16 Q1021 BLU RMK CB INFO NOT AVBL
02:18
V
17 °C 9 km - 040° 040° 5 kt METAR EHLW 120018Z AUTO 04005KT 020V080 9000 BR NCD 17/16 Q1021 BLU
01:55
M
17 °C 7 km - 050° 050° 6 kt METAR EHLW 112355Z AUTO 05006KT 360V090 7000 BR NCD 17/16 Q1022 WHT
01:25
V
16 °C 9 km - 050° 050° 7 kt METAR EHLW 112325Z AUTO 05007KT 010V100 9000 BR NCD 16/15 Q1022 BLU
00:55
V
17 °C 10 km+ - 060° 060° 6 kt METAR EHLW 112255Z AUTO 06006KT 010V090 9999 NCD 17/15 Q1022 BLU
00:25
V
17 °C 10 km+ - 060° 060° 7 kt METAR EHLW 112225Z AUTO 06007KT 340V120 9999 NCD 17/15 Q1022 BLU

2022年8月11日

时间 代码 天气 温度 能见度 天花板 METAR/SPECI
23:55
V
17 °C 10 km+ - 060° 060° 7 kt METAR EHLW 112155Z AUTO 06007KT 360V130 9999 NCD 17/15 Q1022 BLU
23:25
V
17 °C 10 km+ - 060° 060° 7 kt METAR EHLW 112125Z AUTO 06007KT 350V110 9999 NCD 17/15 Q1022 BLU
22:55
V
18 °C 10 km+ - 060° 060° 7 kt METAR EHLW 112055Z AUTO 06007KT 010V120 9999 NCD 18/15 Q1022 BLU
22:25
V
18 °C 10 km+ - 060° 060° 6 kt METAR EHLW 112025Z AUTO 06006KT 350V130 9999 NCD 18/15 Q1021 BLU
21:55
V
19 °C 10 km+ - 060° 060° 7 kt METAR EHLW 111955Z AUTO 06007KT 010V090 9999 NCD 19/15 Q1021 BLU
21:25
V
19 °C 10 km+ - 050° 050° 6 kt METAR EHLW 111925Z AUTO 05006KT 360V090 9999 NCD 19/15 Q1021 BLU
20:55
V
21 °C 10 km+ - 050° 050° 7 kt METAR EHLW 111855Z AUTO 05007KT 010V080 9999 NCD 21/15 Q1021 BLU
20:25
V
22 °C 10 km+ - 050° 050° 8 kt METAR EHLW 111825Z AUTO 05008KT 010V120 9999 NCD 22/15 Q1021 BLU
19:55
V
24 °C 10 km+ - 060° 060° 9 kt METAR EHLW 111755Z AUTO 06009KT 360V100 9999 NCD 24/15 Q1021 BLU
19:25
V
25 °C 10 km+ - 060° 060° 12 kt METAR EHLW 111725Z AUTO 06012KT 350V120 9999 NCD 25/14 Q1021 BLU
18:55
V
25 °C 10 km+ - 050° 050° 12 kt METAR EHLW 111655Z AUTO 05012KT 350V110 9999 NCD 25/14 Q1021 BLU
18:25
V
25 °C 10 km+ - 040° 040° 13 kt METAR EHLW 111625Z AUTO 04013KT 360V080 9999 NCD 25/14 Q1021 BLU
17:55
V
26 °C 10 km+ - 040° 040° 12 kt METAR EHLW 111555Z AUTO 04012KT 360V120 9999 NCD 26/13 Q1021 BLU
17:25
V
27 °C 10 km+ - 040° 040° 11 kt METAR EHLW 111525Z AUTO 04011KT 350V090 9999 NCD 27/14 Q1022 BLU
16:55
V
27 °C 10 km+ - 030° 030° 12 kt METAR EHLW 111455Z AUTO 03012KT 350V050 9999 NCD 27/15 Q1022 BLU
较旧的数据

我们和第三方通过cookies跟踪您在我们网站上的上网行为。如果您继续,我们认为您同意我们的cookie政策。 了解更多